Time;durP1;ratioP1;P1;durP2;ratioP2;P2;SDS_P1;SDS_P2;PMS_P1;PMS_P2;Temp;Humidity;BMP_temperature;BMP_pressure;BME280_temperature;BME280_humidity;BME280_pressure;Samples;Min_cycle;Max_cycle;Signal;HPM_P1;HPM_P2
2021/06/28 00:00:15;;;;;;;0.30;0.30;;;;;;;18.07;76.54;96835.19;29395;250;63005;-61
2021/06/28 00:00:46;;;;;;;0.40;0.40;;;;;;;18.02;76.68;96847.22;29395;209;63009;-61
2021/06/28 00:01:17;;;;;;;0.40;0.40;;;;;;;17.99;76.53;96847.91;29395;213;63013;-61
2021/06/28 00:01:49;;;;;;;0.40;0.40;;;;;;;17.95;77.98;96844.25;29395;233;63009;-62
2021/06/28 00:02:24;;;;;;;0.40;0.40;;;;;;;17.89;77.98;96845.59;29394;221;64009;-61
2021/06/28 00:02:56;;;;;;;0.40;0.40;;;;;;;17.89;77.18;96840.13;29394;198;64013;-60
2021/06/28 00:03:28;;;;;;;0.40;0.40;;;;;;;17.91;76.82;96837.84;29395;226;63008;-59
2021/06/28 00:03:59;;;;;;;0.30;0.30;;;;;;;17.92;76.68;96842.19;29395;208;63009;-60
2021/06/28 00:04:31;;;;;;;0.40;0.40;;;;;;;17.94;76.35;96839.91;29394;199;64009;-61
2021/06/28 00:05:06;;;;;;;0.30;0.30;;;;;;;17.99;76.40;96839.69;29395;233;63017;-60
2021/06/28 00:05:40;;;;;;;0.37;0.37;;;;;;;18.04;76.00;96836.69;29395;282;63005;-60
2021/06/28 00:06:15;;;;;;;0.40;0.40;;;;;;;18.05;75.72;96832.78;29395;199;63009;-64
2021/06/28 00:06:46;;;;;;;0.40;0.40;;;;;;;18.12;75.72;96839.66;29395;216;63005;-60
2021/06/28 00:07:17;;;;;;;0.40;0.40;;;;;;;18.12;75.33;96831.44;29395;333;63009;-61
2021/06/28 00:07:49;;;;;;;0.40;0.40;;;;;;;18.11;75.08;96829.81;29395;234;63005;-59
2021/06/28 00:08:20;;;;;;;0.40;0.40;;;;;;;18.13;74.97;96827.53;29394;227;64013;-72
2021/06/28 00:08:52;;;;;;;0.40;0.40;;;;;;;18.13;75.24;96833.03;29395;265;63009;-59
2021/06/28 00:09:24;;;;;;;0.40;0.40;;;;;;;18.15;75.03;96826.06;29395;237;63009;-59
2021/06/28 00:09:55;;;;;;;0.40;0.40;;;;;;;18.16;75.29;96826.84;29395;207;63004;-60
2021/06/28 00:10:30;;;;;;;0.40;0.40;;;;;;;18.14;75.52;96835.44;29395;198;63008;-59
2021/06/28 00:11:02;;;;;;;0.40;0.40;;;;;;;18.20;75.18;96833.28;29395;237;63004;-58
2021/06/28 00:11:33;;;;;;;0.40;0.40;;;;;;;18.22;74.92;96817.25;29394;262;64014;-62
2021/06/28 00:12:05;;;;;;;0.40;0.40;;;;;;;18.24;75.26;96824.00;29395;205;63005;-61
2021/06/28 00:12:38;;;;;;;0.40;0.40;;;;;;;18.23;75.35;96816.09;29395;198;63009;-60
2021/06/28 00:13:09;;;;;;;0.40;0.40;;;;;;;18.19;75.13;96820.69;29395;285;63015;-61
2021/06/28 00:13:43;;;;;;;0.40;0.40;;;;;;;18.13;75.51;96816.56;29395;218;63005;-58
2021/06/28 00:14:14;;;;;;;0.40;0.40;;;;;;;18.17;75.25;96817.47;29395;202;63005;-61
2021/06/28 00:14:45;;;;;;;0.40;0.40;;;;;;;18.14;75.68;96818.16;29395;234;63009;-59
2021/06/28 00:15:20;;;;;;;0.40;0.40;;;;;;;18.17;75.39;96817.47;29394;217;64009;-59
2021/06/28 00:15:51;;;;;;;0.40;0.40;;;;;;;18.13;75.12;96811.06;29395;249;63009;-61
2021/06/28 00:16:24;;;;;;;0.50;0.50;;;;;;;18.17;74.81;96817.47;29395;384;63004;-74
2021/06/28 00:16:55;;;;;;;0.40;0.40;;;;;;;18.17;74.89;96807.28;29395;208;63025;-58
2021/06/28 00:17:27;;;;;;;0.40;0.40;;;;;;;18.14;74.51;96813.47;29395;235;63004;-61
2021/06/28 00:17:58;;;;;;;0.40;0.40;;;;;;;18.12;75.47;96809.47;29395;234;63008;-60
2021/06/28 00:18:31;;;;;;;0.40;0.40;;;;;;;18.05;76.47;96813.56;29395;218;63004;-58
2021/06/28 00:19:03;;;;;;;0.40;0.40;;;;;;;18.08;75.60;96818.38;29395;256;63009;-61
2021/06/28 00:19:34;;;;;;;0.40;0.40;;;;;;;18.13;75.49;96816.56;29395;244;63005;-59
2021/06/28 00:20:08;;;;;;;0.40;0.40;;;;;;;18.18;74.81;96813.59;29394;202;64014;-64
2021/06/28 00:20:40;;;;;;;0.40;0.40;;;;;;;18.21;74.62;96812.91;29394;202;64009;-60
2021/06/28 00:21:11;;;;;;;0.37;0.37;;;;;;;18.17;74.88;96812.00;29395;207;63009;-59
2021/06/28 00:21:42;;;;;;;0.40;0.40;;;;;;;18.17;74.82;96818.28;29395;207;63005;-59
2021/06/28 00:22:14;;;;;;;0.30;0.30;;;;;;;18.16;75.11;96815.87;29395;229;63009;-61
2021/06/28 00:22:47;;;;;;;0.30;0.30;;;;;;;18.12;75.85;96817.69;29395;203;63005;-60
2021/06/28 00:23:18;;;;;;;0.40;0.40;;;;;;;18.09;76.00;96816.44;29395;209;63009;-60
2021/06/28 00:23:50;;;;;;;0.40;0.40;;;;;;;18.11;75.47;96818.84;29395;211;63004;-59
2021/06/28 00:24:24;;;;;;;0.40;0.40;;;;;;;18.09;75.53;96810.94;29395;202;63009;-59
2021/06/28 00:24:55;;;;;;;0.40;0.40;;;;;;;18.09;75.57;96817.25;29395;332;63004;-59
2021/06/28 00:25:26;;;;;;;0.40;0.40;;;;;;;18.08;75.44;96814.84;29394;211;64030;-58
2021/06/28 00:25:58;;;;;;;0.40;0.40;;;;;;;18.12;75.46;96809.47;29394;207;64008;-69
2021/06/28 00:26:30;;;;;;;1.15;1.15;;;;;;;18.17;75.58;96809.25;29395;213;63009;-59
2021/06/28 00:27:01;;;;;;;0.40;0.40;;;;;;;18.16;75.70;96822.16;29395;248;63005;-59
2021/06/28 00:27:32;;;;;;;0.40;0.40;;;;;;;18.15;75.85;96819.75;29396;234;63009;-61
2021/06/28 00:28:05;;;;;;;0.40;0.40;;;;;;;18.11;75.92;96825.13;29396;260;63005;-59
2021/06/28 00:28:37;;;;;;;0.40;0.40;;;;;;;18.06;76.50;96823.41;29395;219;64013;-59
2021/06/28 00:29:08;;;;;;;0.50;0.50;;;;;;;18.01;76.49;96815.44;29395;216;63005;-58
2021/06/28 00:29:39;;;;;;;0.40;0.40;;;;;;;17.98;76.41;96813.38;29396;249;63009;-60
2021/06/28 00:30:14;;;;;;;0.40;0.40;;;;;;;17.95;75.95;96811.31;29396;196;63016;-60
2021/06/28 00:30:45;;;;;;;0.40;0.40;;;;;;;17.96;76.51;96817.59;29396;210;63009;-62
2021/06/28 00:31:16;;;;;;;0.40;0.40;;;;;;;17.98;76.77;96820.81;29396;230;63004;-59
2021/06/28 00:31:51;;;;;;;0.40;0.40;;;;;;;18.00;76.39;96819.31;29396;281;63009;-61
2021/06/28 00:32:22;;;;;;;0.40;0.40;;;;;;;18.05;76.92;96823.75;29396;213;63004;-60
2021/06/28 00:32:55;;;;;;;0.40;0.40;;;;;;;18.03;76.63;96813.13;29396;223;63009;-67
2021/06/28 00:33:27;;;;;;;0.40;0.40;;;;;;;18.01;76.55;96815.44;29396;207;63004;-59
2021/06/28 00:33:59;;;;;;;0.57;0.57;;;;;;;18.01;76.67;96817.38;29395;256;64014;-61
2021/06/28 00:34:30;;;;;;;0.40;0.40;;;;;;;17.96;77.73;96814.84;29395;311;64009;-59
2021/06/28 00:35:02;;;;;;;0.30;0.30;;;;;;;17.94;77.09;96815.19;29396;280;63009;-59
2021/06/28 00:35:34;;;;;;;0.40;0.40;;;;;;;17.96;77.25;96818.41;29396;236;63005;-59
2021/06/28 00:36:06;;;;;;;0.40;0.40;;;;;;;17.95;77.50;96821.50;29396;197;63009;-60
2021/06/28 00:36:37;;;;;;;0.40;0.40;;;;;;;17.93;77.25;96818.28;29396;219;63005;-60
2021/06/28 00:37:09;;;;;;;0.40;0.40;;;;;;;17.91;78.62;96815.87;29396;212;63009;-59
2021/06/28 00:37:41;;;;;;;0.40;0.40;;;;;;;17.90;78.13;96819.75;29396;204;63005;-60
2021/06/28 00:38:15;;;;;;;0.40;0.40;;;;;;;17.87;79.04;96819.62;29396;230;63009;-61
2021/06/28 00:38:47;;;;;;;0.40;0.40;;;;;;;17.82;79.57;96820.66;29396;209;63004;-60
2021/06/28 00:39:18;;;;;;;0.40;0.40;;;;;;;17.77;79.80;96820.88;29396;231;63009;-59
2021/06/28 00:39:49;;;;;;;0.40;0.40;;;;;;;17.71;79.69;96811.25;29395;309;64009;-60
2021/06/28 00:40:21;;;;;;;0.40;0.40;;;;;;;17.69;79.63;96819.03;29396;231;63009;-59
2021/06/28 00:40:54;;;;;;;0.40;0.40;;;;;;;17.71;79.25;96811.25;29396;271;63004;-58
2021/06/28 00:41:25;;;;;;;0.40;0.40;;;;;;;17.71;80.40;96816.75;29396;252;63015;-58
2021/06/28 00:41:57;;;;;;;0.40;0.40;;;;;;;17.69;80.08;96819.03;29396;207;63005;-60
2021/06/28 00:42:28;;;;;;;0.40;0.40;;;;;;;17.68;79.84;96811.94;29396;266;63022;-60
2021/06/28 00:42:59;;;;;;;0.40;0.40;;;;;;;17.75;79.52;96812.19;29396;334;63005;-70
2021/06/28 00:43:31;;;;;;;0.40;0.40;;;;;;;17.77;79.02;96806.34;29396;202;63009;-60
2021/06/28 00:44:03;;;;;;;0.40;0.40;;;;;;;17.78;78.83;96807.97;29396;208;63005;-59
2021/06/28 00:44:34;;;;;;;0.40;0.40;;;;;;;17.77;79.00;96809.09;29396;221;63009;-59
2021/06/28 00:45:24;;;;;;;0.40;0.40;;;;;;;17.75;78.76;96809.44;29395;226;64009;-59
2021/06/28 00:45:55;;;;;;;0.30;0.30;;;;;;;17.77;79.28;96803.59;29396;199;63009;-70
2021/06/28 00:46:26;;;;;;;0.40;0.40;;;;;;;17.78;79.50;96802.47;29396;220;63004;-60
2021/06/28 00:46:57;;;;;;;0.40;0.40;;;;;;;17.76;79.94;96802.81;29396;227;63009;-60
2021/06/28 00:47:29;;;;;;;0.40;0.40;;;;;;;17.77;79.42;96809.09;29396;389;63004;-61
2021/06/28 00:48:09;;;;;;;0.30;0.30;;;;;;;17.75;79.41;96802.00;29396;223;63009;-60
2021/06/28 00:48:40;;;;;;;0.30;0.30;;;;;;;17.76;79.37;96797.31;29418;341;63004;-60
2021/06/28 00:49:13;;;;;;;0.40;0.40;;;;;;;17.76;79.06;96791.84;29396;271;63009;-60
2021/06/28 00:49:45;;;;;;;0.40;0.40;;;;;;;17.76;79.41;96794.56;29396;199;63005;-60
2021/06/28 00:50:17;;;;;;;0.30;0.30;;;;;;;17.78;79.43;96797.78;29395;198;64014;-60
2021/06/28 00:50:53;;;;;;;0.40;0.40;;;;;;;17.85;79.22;96802.72;29396;246;63005;-59
2021/06/28 00:51:27;;;;;;;0.37;0.37;;;;;;;17.86;79.37;96799.63;29396;237;63009;-61
2021/06/28 00:51:59;;;;;;;0.40;0.40;;;;;;;17.84;79.25;96799.16;29396;277;63005;-59
2021/06/28 00:52:30;;;;;;;0.40;0.40;;;;;;;17.82;78.80;96798.69;29396;199;63017;-61
2021/06/28 00:53:10;;;;;;;0.40;0.40;;;;;;;17.79;79.92;96791.16;29396;354;63004;-61
2021/06/28 00:53:47;;;;;;;0.40;0.40;;;;;;;17.83;79.24;96796.75;29396;302;63009;-61
2021/06/28 00:54:19;;;;;;;0.40;0.40;;;;;;;17.85;78.90;96791.72;29396;197;63017;-68
2021/06/28 00:54:50;;;;;;;0.40;0.40;;;;;;;17.84;79.14;96793.69;29396;317;63009;-59
2021/06/28 00:55:22;;;;;;;0.40;0.40;;;;;;;17.84;79.00;96793.69;29395;206;64008;-60
2021/06/28 00:56:09;;;;;;;0.40;0.40;;;;;;;17.84;79.11;96790.94;29396;230;63008;-61
2021/06/28 00:56:40;;;;;;;0.40;0.40;;;;;;;17.89;79.10;96790.72;29396;223;63005;-60
2021/06/28 00:57:11;;;;;;;0.40;0.40;;;;;;;17.87;78.87;96798.50;29396;204;63009;-60
2021/06/28 00:57:42;;;;;;;0.40;0.40;;;;;;;17.86;78.58;96796.88;29396;220;63005;-59
2021/06/28 00:58:15;;;;;;;0.40;0.40;;;;;;;17.84;78.93;96793.69;29396;213;63009;-59
2021/06/28 00:58:47;;;;;;;0.40;0.40;;;;;;;17.84;78.97;96792.87;29396;229;63005;-61
2021/06/28 00:59:20;;;;;;;0.40;0.40;;;;;;;17.86;78.86;96791.41;29396;207;63024;-59
2021/06/28 00:59:55;;;;;;;0.40;0.40;;;;;;;17.85;78.81;96800.78;29396;231;63005;-59
2021/06/28 01:00:27;;;;;;;0.40;0.40;;;;;;;17.84;79.16;96788.19;29395;228;64013;-61
2021/06/28 01:00:58;;;;;;;0.40;0.40;;;;;;;17.85;79.13;96787.03;29396;216;63004;-69
2021/06/28 01:01:33;;;;;;;0.40;0.40;;;;;;;17.87;79.21;96782.00;29396;255;63009;-58
2021/06/28 01:02:06;;;;;;;0.40;0.40;;;;;;;17.91;78.85;96774.69;29396;236;63004;-60
2021/06/28 01:02:38;;;;;;;0.40;0.40;;;;;;;17.93;78.80;96779.84;29395;251;64013;-58
2021/06/28 01:03:09;;;;;;;0.40;0.40;;;;;;;17.93;78.42;96775.16;29396;276;63004;-60
2021/06/28 01:03:41;;;;;;;0.40;0.40;;;;;;;17.93;78.47;96780.66;29396;293;63009;-59
2021/06/28 01:04:12;;;;;;;0.37;0.37;;;;;;;17.91;78.30;96777.44;29396;203;63005;-60
2021/06/28 01:04:44;;;;;;;0.40;0.40;;;;;;;17.90;78.67;96780.53;29396;197;63009;-58
2021/06/28 01:05:19;;;;;;;0.40;0.40;;;;;;;17.90;78.37;96788.78;29396;271;63005;-59
2021/06/28 01:05:50;;;;;;;0.40;0.40;;;;;;;17.88;78.20;96778.13;29396;362;63009;-69
2021/06/28 01:06:22;;;;;;;0.40;0.40;;;;;;;17.87;78.72;96776.53;29396;213;63009;-61
2021/06/28 01:06:56;;;;;;;0.40;0.40;;;;;;;17.85;78.79;96787.03;29395;227;64013;-61
2021/06/28 01:07:29;;;;;;;0.40;0.40;;;;;;;17.87;78.67;96786.72;29395;214;64009;-59
2021/06/28 01:08:04;;;;;;;0.40;0.40;;;;;;;17.86;78.71;96780.41;29396;368;63009;-69
2021/06/28 01:08:41;;;;;;;0.40;0.40;;;;;;;17.85;78.50;96787.03;29396;242;63004;-67
2021/06/28 01:09:12;;;;;;;0.40;0.40;;;;;;;17.83;78.77;96786.59;29395;216;64009;-61
2021/06/28 01:09:43;;;;;;;0.40;0.40;;;;;;;17.85;78.76;96792.53;29396;218;63004;-66
2021/06/28 01:10:17;;;;;;;0.40;0.40;;;;;;;17.85;78.82;96789.78;29396;225;63008;-60
2021/06/28 01:10:48;;;;;;;0.40;0.40;;;;;;;17.85;78.53;96784.31;29396;201;63004;-61
2021/06/28 01:11:19;;;;;;;0.40;0.40;;;;;;;17.86;78.20;96780.41;29397;233;63009;-68
2021/06/28 01:11:51;;;;;;;0.40;0.40;;;;;;;17.86;78.31;96783.16;29397;216;63005;-60
2021/06/28 01:12:23;;;;;;;0.40;0.40;;;;;;;17.87;78.00;96787.50;29396;197;64014;-60
2021/06/28 01:12:55;;;;;;;0.40;0.40;;;;;;;17.87;77.83;96776.53;29397;205;63005;-61
2021/06/28 01:13:26;;;;;;;0.40;0.40;;;;;;;17.86;78.05;96777.66;29397;281;63009;-57
2021/06/28 01:13:59;;;;;;;0.40;0.40;;;;;;;17.86;77.91;96780.41;29397;203;63005;-60
2021/06/28 01:14:31;;;;;;;0.40;0.40;;;;;;;17.84;78.01;96782.69;29397;214;63009;-67
2021/06/28 01:15:05;;;;;;;0.40;0.40;;;;;;;17.85;77.80;96778.81;29397;204;63004;-61
2021/06/28 01:15:39;;;;;;;0.40;0.40;;;;;;;17.84;78.13;96777.22;29397;237;63009;-60
2021/06/28 01:16:10;;;;;;;0.40;0.40;;;;;;;17.85;77.81;96775.25;29397;220;63009;-61
2021/06/28 01:16:44;;;;;;;0.40;0.40;;;;;;;17.84;78.05;96777.22;29397;258;63009;-68
2021/06/28 01:17:17;;;;;;;0.40;0.40;;;;;;;17.85;77.26;96773.31;29397;220;63004;-60
2021/06/28 01:17:49;;;;;;;0.40;0.40;;;;;;;17.85;77.05;96784.31;29396;236;64013;-60
2021/06/28 01:18:21;;;;;;;0.40;0.40;;;;;;;17.86;77.09;96769.44;29397;239;63004;-60
2021/06/28 01:18:53;;;;;;;0.30;0.30;;;;;;;17.85;77.71;96781.56;29397;210;63009;-70
2021/06/28 01:19:29;;;;;;;0.37;0.37;;;;;;;17.89;76.64;96776.19;29397;264;63005;-61
2021/06/28 01:20:08;;;;;;;0.30;0.30;;;;;;;17.90;76.64;96778.59;29397;206;63009;-60
2021/06/28 01:20:40;;;;;;;0.40;0.40;;;;;;;17.91;76.23;96771.97;29397;215;63005;-69
2021/06/28 01:21:14;;;;;;;0.30;0.30;;;;;;;17.92;76.29;96773.56;29396;212;64013;-73
2021/06/28 01:21:48;;;;;;;0.40;0.40;;;;;;;17.92;76.86;96772.75;29397;223;63005;-61
2021/06/28 01:22:25;;;;;;;0.40;0.40;;;;;;;17.93;75.49;96772.41;29397;309;63009;-61
2021/06/28 01:23:26;;;;;;;0.30;0.30;;;;;;;17.98;74.69;96769.44;29397;237;63004;-61
2021/06/28 01:23:58;;;;;;;0.40;0.40;;;;;;;18.00;74.73;96769.09;29441;196;63009;-60
2021/06/28 01:24:30;;;;;;;0.40;0.40;;;;;;;18.02;74.75;96772.28;29397;220;63004;-61
2021/06/28 01:25:04;;;;;;;0.40;0.40;;;;;;;18.01;75.15;96771.50;29396;204;63009;-60
2021/06/28 01:25:35;;;;;;;0.30;0.30;;;;;;;18.00;75.23;96769.91;29396;206;63004;-66
2021/06/28 01:26:10;;;;;;;0.40;0.40;;;;;;;18.00;75.19;96767.16;29396;212;64014;-61
2021/06/28 01:26:41;;;;;;;0.32;0.32;;;;;;;18.00;75.69;96769.91;29396;257;63005;-62
2021/06/28 01:27:13;;;;;;;0.30;0.30;;;;;;;18.02;75.58;96761.28;29396;233;63018;-61
2021/06/28 01:27:45;;;;;;;0.30;0.30;;;;;;;18.03;75.34;96768.38;29396;213;63005;-60
2021/06/28 01:28:16;;;;;;;0.30;0.30;;;;;;;18.05;74.92;96761.41;29396;347;63009;-60
2021/06/28 01:28:47;;;;;;;0.30;0.30;;;;;;;18.05;74.68;96764.16;29396;202;63005;-62
2021/06/28 01:29:22;;;;;;;0.40;0.40;;;;;;;18.08;74.66;96766.22;29397;230;63009;-60
2021/06/28 01:29:54;;;;;;;0.40;0.40;;;;;;;18.12;74.76;96760.03;29396;215;63005;-61
2021/06/28 01:30:29;;;;;;;0.32;0.32;;;;;;;18.14;74.84;96763.25;29396;300;63009;-61
2021/06/28 01:31:02;;;;;;;0.30;0.30;;;;;;;18.13;74.85;96762.44;29396;205;63018;-61
2021/06/28 01:31:34;;;;;;;0.40;0.40;;;;;;;18.13;74.79;96772.62;29395;218;64013;-61
2021/06/28 01:32:06;;;;;;;0.40;0.40;;;;;;;18.14;75.09;96763.25;29396;221;63004;-61
2021/06/28 01:32:37;;;;;;;0.40;0.40;;;;;;;18.13;75.47;96772.62;29396;218;63009;-61
2021/06/28 01:33:09;;;;;;;0.40;0.40;;;;;;;18.14;75.35;96775.03;29396;210;63004;-61
2021/06/28 01:33:40;;;;;;;0.30;0.30;;;;;;;18.17;75.47;96762.56;29396;212;63009;-60
2021/06/28 01:34:12;;;;;;;0.30;0.30;;;;;;;18.19;75.42;96765.75;29396;209;63005;-60
2021/06/28 01:34:43;;;;;;;0.30;0.30;;;;;;;18.21;75.33;96764.28;29397;280;63009;-61
2021/06/28 01:35:17;;;;;;;0.30;0.30;;;;;;;18.26;75.56;96755.00;29395;231;64005;-60
2021/06/28 01:35:49;;;;;;;0.30;0.30;;;;;;;18.29;75.50;96763.34;29396;214;63009;-60
2021/06/28 01:36:20;;;;;;;0.30;0.30;;;;;;;18.31;75.39;96760.25;29396;199;63005;-61
2021/06/28 01:36:51;;;;;;;0.40;0.40;;;;;;;18.35;75.54;96752.94;29395;212;64009;-60
2021/06/28 01:37:25;;;;;;;0.40;0.40;;;;;;;18.40;75.74;96755.41;29396;215;63005;-60
2021/06/28 01:37:57;;;;;;;0.40;0.40;;;;;;;18.37;75.64;96750.62;29396;214;63009;-61
2021/06/28 01:38:28;;;;;;;0.30;0.30;;;;;;;18.35;75.26;96752.94;29396;259;63004;-61
2021/06/28 01:38:59;;;;;;;0.30;0.30;;;;;;;18.33;75.36;96746.97;29396;218;63009;-60
2021/06/28 01:39:30;;;;;;;0.35;0.35;;;;;;;18.35;75.72;96741.94;29396;242;63004;-61
2021/06/28 01:40:06;;;;;;;0.30;0.30;;;;;;;18.32;75.46;96742.62;29396;230;63009;-60
2021/06/28 01:40:38;;;;;;;0.40;0.40;;;;;;;18.33;75.60;96750.53;29396;211;63004;-75
2021/06/28 01:41:10;;;;;;;0.30;0.30;;;;;;;18.32;75.40;96737.94;29396;212;63009;-60
2021/06/28 01:41:41;;;;;;;0.30;0.30;;;;;;;18.30;75.37;96750.41;29396;202;63005;-61
2021/06/28 01:42:12;;;;;;;0.30;0.30;;;;;;;18.29;75.33;96746.87;29395;227;64014;-60
2021/06/28 01:42:45;;;;;;;0.40;0.40;;;;;;;18.30;75.52;96744.94;29396;233;63005;-59
2021/06/28 01:43:16;;;;;;;0.30;0.30;;;;;;;18.31;75.59;96747.34;29396;251;63009;-61
2021/06/28 01:43:48;;;;;;;0.30;0.30;;;;;;;18.31;75.37;96752.03;29396;286;63005;-60
2021/06/28 01:44:20;;;;;;;0.30;0.30;;;;;;;18.32;75.50;96748.13;29396;207;63009;-62
2021/06/28 01:44:52;;;;;;;0.30;0.30;;;;;;;18.38;75.81;96749.47;29396;214;63005;-59
2021/06/28 01:45:24;;;;;;;1.48;1.37;;;;;;;18.40;75.37;96749.94;29396;208;63009;-60
2021/06/28 01:45:55;;;;;;;0.30;0.30;;;;;;;18.35;75.25;96751.00;29396;209;63004;-61
2021/06/28 01:46:27;;;;;;;0.30;0.30;;;;;;;18.33;75.39;96750.53;29396;297;63009;-61
2021/06/28 01:46:59;;;;;;;0.30;0.30;;;;;;;18.29;75.34;96754.31;29396;209;63016;-60
2021/06/28 01:47:30;;;;;;;0.30;0.30;;;;;;;18.27;75.60;96757.41;29395;216;64013;-61
2021/06/28 01:48:02;;;;;;;0.30;0.30;;;;;;;18.25;76.67;96754.19;29395;208;64008;-61
2021/06/28 01:48:36;;;;;;;0.30;0.30;;;;;;;18.22;76.14;96754.87;29396;225;63008;-62
2021/06/28 01:49:07;;;;;;;0.30;0.30;;;;;;;18.22;76.64;96754.09;29396;197;63005;-60
2021/06/28 01:49:39;;;;;;;0.40;0.40;;;;;;;18.22;77.06;96751.34;29396;236;63009;-60
2021/06/28 01:50:13;;;;;;;0.30;0.30;;;;;;;18.21;76.93;96757.97;29396;198;63005;-60
2021/06/28 01:50:45;;;;;;;0.40;0.40;;;;;;;18.24;77.05;96760.03;29396;288;63009;-60
2021/06/28 01:51:16;;;;;;;0.30;0.30;;;;;;;18.26;76.56;96755.00;29396;205;63005;-60
2021/06/28 01:51:47;;;;;;;0.30;0.30;;;;;;;18.28;76.73;96747.22;29396;280;63009;-60
2021/06/28 01:52:19;;;;;;;0.30;0.30;;;;;;;18.31;76.61;96746.53;29395;236;64009;-60
2021/06/28 01:52:51;;;;;;;0.30;0.30;;;;;;;18.31;76.25;96744.59;29396;197;63017;-61
2021/06/28 01:53:22;;;;;;;0.30;0.30;;;;;;;18.31;76.19;96741.84;29396;197;63004;-60
2021/06/28 01:53:53;;;;;;;0.30;0.30;;;;;;;18.32;76.40;96743.44;29396;212;63009;-59
2021/06/28 01:54:28;;;;;;;0.30;0.30;;;;;;;18.31;76.47;96754.78;29395;265;64009;-60
2021/06/28 01:55:00;;;;;;;0.30;0.30;;;;;;;18.29;76.18;96751.56;29396;237;63009;-61
2021/06/28 01:55:32;;;;;;;0.40;0.40;;;;;;;18.27;76.58;96751.09;29396;261;63004;-68
2021/06/28 01:56:05;;;;;;;0.30;0.30;;;;;;;18.25;76.70;96742.41;29396;256;63008;-61
2021/06/28 01:56:36;;;;;;;0.30;0.30;;;;;;;18.20;76.93;96746.19;29396;223;63005;-61
2021/06/28 01:57:08;;;;;;;0.30;0.30;;;;;;;18.17;76.68;96741.38;29396;206;63009;-62
2021/06/28 01:57:43;;;;;;;0.30;0.30;;;;;;;18.18;77.49;96740.25;29396;216;63005;-60
2021/06/28 01:58:16;;;;;;;0.30;0.30;;;;;;;18.18;77.25;96747.69;29396;281;63026;-58
2021/06/28 01:58:47;;;;;;;0.30;0.30;;;;;;;18.17;77.24;96737.84;29396;203;63005;-60
2021/06/28 01:59:22;;;;;;;0.30;0.30;;;;;;;18.17;77.53;96740.59;29396;206;63009;-60
2021/06/28 01:59:53;;;;;;;0.30;0.30;;;;;;;18.16;77.76;96741.72;29395;264;64009;-62
2021/06/28 02:00:58;;;;;;;0.30;0.30;;;;;;;18.13;77.71;96750.66;29395;225;64013;-60
2021/06/28 02:01:29;;;;;;;0.40;0.40;;;;;;;18.13;77.89;96745.97;29396;202;63004;-61
2021/06/28 02:02:04;;;;;;;0.40;0.40;;;;;;;18.12;77.93;96743.56;29396;222;63012;-61
2021/06/28 02:02:35;;;;;;;0.40;0.40;;;;;;;18.10;77.55;96754.87;29396;215;63004;-61
2021/06/28 02:03:09;;;;;;;0.40;0.40;;;;;;;18.13;78.13;96750.66;29396;211;63008;-62
2021/06/28 02:03:40;;;;;;;0.40;0.40;;;;;;;18.14;77.93;96755.00;29396;222;63005;-61
2021/06/28 02:04:18;;;;;;;0.40;0.40;;;;;;;18.14;77.83;96755.00;29396;330;63009;-61
2021/06/28 02:04:49;;;;;;;0.40;0.40;;;;;;;18.11;77.92;96758.44;29395;208;64009;-62
2021/06/28 02:05:21;;;;;;;0.30;0.30;;;;;;;18.09;78.12;96745.84;29396;288;63009;-61
2021/06/28 02:05:59;;;;;;;0.32;0.32;;;;;;;18.04;78.05;96757.06;29396;226;63005;-62
2021/06/28 02:06:30;;;;;;;0.40;0.40;;;;;;;18.06;78.13;96752.03;29396;222;63009;-62
2021/06/28 02:07:05;;;;;;;0.30;0.30;;;;;;;18.03;77.60;96749.97;29396;290;63004;-61
2021/06/28 02:07:37;;;;;;;0.40;0.40;;;;;;;18.01;78.70;96755.03;29396;227;63009;-60
2021/06/28 02:08:10;;;;;;;0.40;0.40;;;;;;;18.00;78.24;96761.66;29396;202;63004;-61
2021/06/28 02:08:41;;;;;;;0.30;0.30;;;;;;;17.98;78.52;96750.22;29396;327;63009;-62
2021/06/28 02:09:13;;;;;;;0.30;0.30;;;;;;;17.97;78.19;96751.38;29396;240;63009;-61
2021/06/28 02:09:44;;;;;;;0.30;0.30;;;;;;;17.97;78.50;96758.81;29395;202;64013;-62
2021/06/28 02:10:15;;;;;;;0.30;0.30;;;;;;;17.94;78.66;96754.00;29396;281;63004;-60
2021/06/28 02:10:49;;;;;;;0.30;0.30;;;;;;;17.92;78.73;96751.59;29396;200;63009;-60
2021/06/28 02:11:21;;;;;;;0.40;0.40;;;;;;;17.93;78.32;96752.41;29396;221;63005;-60
2021/06/28 02:11:53;;;;;;;0.40;0.40;;;;;;;17.93;78.41;96753.19;29395;207;64014;-61
2021/06/28 02:12:25;;;;;;;0.30;0.30;;;;;;;17.95;78.25;96755.59;29395;218;64009;-62
2021/06/28 02:12:57;;;;;;;0.40;0.40;;;;;;;17.95;78.46;96753.66;29396;213;63009;-62
2021/06/28 02:13:31;;;;;;;0.30;0.30;;;;;;;17.94;78.35;96751.25;29396;202;63005;-60
2021/06/28 02:14:02;;;;;;;0.30;0.30;;;;;;;17.94;78.40;96745.78;29395;332;64013;-70
2021/06/28 02:14:34;;;;;;;0.32;0.32;;;;;;;17.92;78.51;96740.63;29397;285;63011;-61
2021/06/28 02:15:07;;;;;;;0.30;0.30;;;;;;;17.95;78.61;96744.63;29395;200;64013;-61
2021/06/28 02:15:38;;;;;;;0.30;0.30;;;;;;;17.96;78.21;96730.56;29397;281;63004;-60
2021/06/28 02:16:09;;;;;;;0.30;0.30;;;;;;;18.00;78.14;96734.22;29395;234;64013;-61
2021/06/28 02:16:45;;;;;;;0.30;0.30;;;;;;;17.99;78.17;96735.38;29394;216;64009;-61
2021/06/28 02:17:18;;;;;;;0.30;0.30;;;;;;;18.00;78.37;96733.41;29395;223;63008;-60
2021/06/28 02:17:50;;;;;;;0.30;0.30;;;;;;;18.03;77.82;96728.00;29395;214;63004;-60
2021/06/28 02:18:24;;;;;;;0.40;0.40;;;;;;;18.03;77.75;96725.25;29395;297;63009;-60
2021/06/28 02:18:55;;;;;;;0.30;0.30;;;;;;;18.03;77.57;96725.25;29395;203;63005;-63
2021/06/28 02:19:27;;;;;;;0.30;0.30;;;;;;;18.02;78.19;96729.16;29395;250;63009;-60
2021/06/28 02:19:58;;;;;;;0.30;0.30;;;;;;;18.00;78.08;96730.66;29395;318;63005;-60
2021/06/28 02:20:30;;;;;;;0.37;0.37;;;;;;;17.99;77.63;96729.88;29393;214;64013;-62
2021/06/28 02:21:02;;;;;;;0.32;0.32;;;;;;;17.97;78.19;96732.16;29393;202;64009;-61
2021/06/28 02:21:33;;;;;;;0.30;0.30;;;;;;;17.98;78.09;96722.78;29395;205;63009;-61
2021/06/28 02:22:04;;;;;;;0.30;0.30;;;;;;;18.00;77.61;96727.94;29394;205;63005;-62
2021/06/28 02:22:41;;;;;;;0.30;0.30;;;;;;;18.00;77.80;96728.72;29395;321;63009;-62
2021/06/28 02:23:33;;;;;;;0.30;0.30;;;;;;;18.01;77.70;96727.59;29395;204;63004;-61
2021/06/28 02:24:06;;;;;;;0.30;0.30;;;;;;;18.02;77.65;96734.66;29395;257;63009;-61
2021/06/28 02:24:40;;;;;;;0.40;0.40;;;;;;;18.06;77.78;96735.56;29395;216;63004;-62
2021/06/28 02:25:13;;;;;;;0.30;0.30;;;;;;;18.09;77.90;96734.88;29395;196;63008;-60
2021/06/28 02:25:44;;;;;;;0.30;0.30;;;;;;;18.12;77.55;96732.59;29395;204;63005;-60
2021/06/28 02:26:15;;;;;;;0.40;0.40;;;;;;;18.12;77.69;96732.59;29393;365;64014;-61
2021/06/28 02:26:47;;;;;;;0.40;0.40;;;;;;;18.08;77.37;96727.78;29395;211;63005;-62
2021/06/28 02:27:18;;;;;;;0.40;0.40;;;;;;;18.07;77.48;96730.87;29395;207;63009;-62
2021/06/28 02:27:49;;;;;;;0.40;0.40;;;;;;;18.08;77.31;96729.72;29395;253;63005;-62
2021/06/28 02:28:21;;;;;;;0.30;0.30;;;;;;;18.05;77.80;96725.72;29395;298;63009;-61
2021/06/28 02:28:52;;;;;;;0.30;0.30;;;;;;;18.05;77.47;96720.22;29395;310;63016;-62
2021/06/28 02:29:23;;;;;;;0.40;0.40;;;;;;;18.06;77.77;96726.53;29395;199;63009;-60
2021/06/28 02:29:55;;;;;;;0.40;0.40;;;;;;;18.05;77.70;96722.19;29395;219;63004;-62
2021/06/28 02:30:26;;;;;;;0.40;0.40;;;;;;;18.04;78.19;96726.88;29393;232;64013;-62
2021/06/28 02:30:59;;;;;;;0.40;0.40;;;;;;;18.01;78.17;96727.59;29395;237;63008;-61
2021/06/28 02:31:30;;;;;;;0.30;0.30;;;;;;;18.00;77.78;96725.19;29395;235;63009;-62
2021/06/28 02:32:03;;;;;;;0.35;0.35;;;;;;;18.03;77.80;96733.50;29395;203;63004;-63
2021/06/28 02:32:34;;;;;;;0.40;0.40;;;;;;;18.05;77.60;96728.47;29393;200;64013;-62
2021/06/28 02:33:07;;;;;;;0.35;0.35;;;;;;;18.08;77.72;96735.22;29395;202;63008;-61
2021/06/28 02:33:41;;;;;;;0.30;0.30;;;;;;;18.12;77.96;96729.84;29395;249;63009;-60
2021/06/28 02:34:13;;;;;;;0.40;0.40;;;;;;;18.14;77.64;96730.28;29395;239;63001;-62
2021/06/28 02:34:47;;;;;;;0.40;0.40;;;;;;;18.14;77.84;96735.78;29395;297;63009;-61
2021/06/28 02:35:19;;;;;;;0.40;0.40;;;;;;;18.11;77.73;96737.28;29395;211;63005;-69
2021/06/28 02:35:52;;;;;;;0.30;0.30;;;;;;;18.06;78.59;96740.25;29395;227;63009;-61